GLO2051 SBBE-SBBR
Flight info
| Callsign | GLO2051 |
|---|---|
| Flight time | 2h 13m |
| Altitude | 37000 |
| Route | LEMIS UZ26 PADIL |
| Aircraft | B738/M-SDFGIKLORWXY/LB1 |
Departure
| Time | 2026-05-05 01:26 |
|---|---|
| Airport | Val de Cans/Júlio Cezar Ribeiro International Airport (SBBE) |
Arrival
| Time | 2026-05-05 03:39 |
|---|---|
| Airport | Presidente Juscelino Kubitschek International Airport (SBBR) |
| Time | Latitude | Longitude | Altitude | Speed | Heading |
|---|---|---|---|---|---|
| 2026-05-05 01:13 | -1.38716 | -48.47935 | 107 ft | 0 kts | 179° |
| 2026-05-05 01:15 | -1.38718 | -48.47937 | 52 ft | 1 kts | 207° |
| 2026-05-05 01:15 | -1.38717 | -48.47944 | 52 ft | 1 kts | 286° |
| 2026-05-05 01:15 | -1.38709 | -48.47949 | 46 ft | 2 kts | 320° |
| 2026-05-05 01:16 | -1.38699 | -48.47958 | 48 ft | 2 kts | 320° |
| 2026-05-05 01:16 | -1.38689 | -48.47966 | 51 ft | 0 kts | 320° |
| 2026-05-05 01:16 | -1.38688 | -48.47967 | 51 ft | 0 kts | 320° |
| 2026-05-05 01:16 | -1.38684 | -48.47970 | 51 ft | 1 kts | 320° |
| 2026-05-05 01:17 | -1.38678 | -48.47977 | 51 ft | 2 kts | 310° |
| 2026-05-05 01:17 | -1.38678 | -48.47980 | -3 ft | 0 kts | 285° |
| 2026-05-05 01:21 | -1.38673 | -48.47995 | 101 ft | 4 kts | 285° |
| 2026-05-05 01:21 | -1.38672 | -48.48026 | 49 ft | 5 kts | 269° |
| 2026-05-05 01:21 | -1.38673 | -48.48062 | 49 ft | 5 kts | 268° |
| 2026-05-05 01:22 | -1.38675 | -48.48101 | 48 ft | 6 kts | 268° |
| 2026-05-05 01:22 | -1.38675 | -48.48140 | 47 ft | 6 kts | 270° |
| 2026-05-05 01:22 | -1.38676 | -48.48179 | 47 ft | 6 kts | 270° |
| 2026-05-05 01:22 | -1.38676 | -48.48217 | 46 ft | 6 kts | 267° |
| 2026-05-05 01:23 | -1.38699 | -48.48249 | 46 ft | 6 kts | 223° |
| 2026-05-05 01:23 | -1.38728 | -48.48276 | 45 ft | 6 kts | 225° |
| 2026-05-05 01:23 | -1.38756 | -48.48304 | 45 ft | 6 kts | 225° |
| 2026-05-05 01:23 | -1.38783 | -48.48332 | 45 ft | 6 kts | 225° |
| 2026-05-05 01:24 | -1.38809 | -48.48360 | 45 ft | 5 kts | 236° |
| 2026-05-05 01:24 | -1.38816 | -48.48397 | 44 ft | 6 kts | 269° |
| 2026-05-05 01:24 | -1.38814 | -48.48436 | 44 ft | 6 kts | 272° |
| 2026-05-05 01:24 | -1.38804 | -48.48473 | 43 ft | 6 kts | 319° |
| 2026-05-05 01:25 | -1.38775 | -48.48468 | 43 ft | 0 kts | 44° |
| 2026-05-05 01:25 | -1.38694 | -48.48385 | 43 ft | 53 kts | 45° |
| 2026-05-05 01:25 | -1.38243 | -48.47933 | 48 ft | 129 kts | 45° |
| 2026-05-05 01:25 | -1.37455 | -48.47159 | 212 ft | 178 kts | 43° |
| 2026-05-05 01:26 | -1.36514 | -48.46310 | 1057 ft | 183 kts | 43° |
| 2026-05-05 01:26 | -1.35701 | -48.45286 | 1878 ft | 198 kts | 69° |
| 2026-05-05 01:26 | -1.35673 | -48.43849 | 2121 ft | 224 kts | 107° |
| 2026-05-05 01:26 | -1.36557 | -48.42517 | 2573 ft | 238 kts | 136° |
| 2026-05-05 01:27 | -1.38053 | -48.41697 | 2928 ft | 259 kts | 165° |
| 2026-05-05 01:27 | -1.39880 | -48.41465 | 3559 ft | 269 kts | 173° |
| 2026-05-05 01:27 | -1.41747 | -48.41311 | 4439 ft | 269 kts | 173° |
| 2026-05-05 01:27 | -1.43618 | -48.41154 | 5283 ft | 271 kts | 172° |
| 2026-05-05 01:28 | -1.45510 | -48.40984 | 6055 ft | 275 kts | 172° |
| 2026-05-05 01:28 | -1.47429 | -48.40801 | 6791 ft | 279 kts | 171° |
| 2026-05-05 01:28 | -1.49373 | -48.40608 | 7526 ft | 282 kts | 171° |
| 2026-05-05 01:28 | -1.51343 | -48.40409 | 8234 ft | 286 kts | 171° |
| 2026-05-05 01:29 | -1.53336 | -48.40203 | 8940 ft | 291 kts | 171° |
| 2026-05-05 01:29 | -1.55339 | -48.39995 | 9653 ft | 294 kts | 171° |
| 2026-05-05 01:29 | -1.57393 | -48.39780 | 10302 ft | 300 kts | 171° |
| 2026-05-05 01:29 | -1.59555 | -48.39552 | 10503 ft | 323 kts | 171° |
| 2026-05-05 01:30 | -1.61861 | -48.39308 | 10675 ft | 344 kts | 171° |
| 2026-05-05 01:30 | -1.64278 | -48.38979 | 11026 ft | 355 kts | 168° |
| 2026-05-05 01:30 | -1.66727 | -48.38547 | 11595 ft | 359 kts | 167° |
| 2026-05-05 01:30 | -1.69194 | -48.38093 | 12254 ft | 361 kts | 167° |
| 2026-05-05 01:31 | -1.71667 | -48.37642 | 12881 ft | 364 kts | 167° |
| 2026-05-05 01:31 | -1.74178 | -48.37195 | 13461 ft | 368 kts | 167° |
| 2026-05-05 01:31 | -1.76716 | -48.36750 | 14021 ft | 372 kts | 167° |
| 2026-05-05 01:31 | -1.79246 | -48.36310 | 14550 ft | 374 kts | 168° |
| 2026-05-05 01:32 | -1.81853 | -48.35849 | 15093 ft | 377 kts | 167° |
| 2026-05-05 01:32 | -1.84405 | -48.35372 | 15613 ft | 379 kts | 167° |
| 2026-05-05 01:32 | -1.87006 | -48.34875 | 16120 ft | 382 kts | 167° |
| 2026-05-05 01:32 | -1.89631 | -48.34373 | 16624 ft | 385 kts | 167° |
| 2026-05-05 01:33 | -1.92282 | -48.33869 | 17123 ft | 388 kts | 167° |
| 2026-05-05 01:33 | -1.94959 | -48.33361 | 17617 ft | 391 kts | 167° |
| 2026-05-05 01:33 | -1.97644 | -48.32853 | 18097 ft | 394 kts | 167° |
| 2026-05-05 01:33 | -2.00350 | -48.32342 | 18525 ft | 397 kts | 167° |
| 2026-05-05 01:34 | -2.03077 | -48.31827 | 18933 ft | 400 kts | 168° |
| 2026-05-05 01:34 | -2.05831 | -48.31372 | 19351 ft | 402 kts | 170° |
| 2026-05-05 01:34 | -2.08618 | -48.31000 | 19760 ft | 405 kts | 171° |
| 2026-05-05 01:34 | -2.11389 | -48.30662 | 20154 ft | 407 kts | 172° |
| 2026-05-05 01:35 | -2.14212 | -48.30323 | 20543 ft | 410 kts | 172° |
| 2026-05-05 01:35 | -2.17053 | -48.29977 | 20936 ft | 412 kts | 171° |
| 2026-05-05 01:35 | -2.19906 | -48.29623 | 21318 ft | 414 kts | 171° |
| 2026-05-05 01:35 | -2.22768 | -48.29261 | 21699 ft | 416 kts | 171° |
| 2026-05-05 01:36 | -2.25655 | -48.28892 | 22060 ft | 419 kts | 171° |
| 2026-05-05 01:36 | -2.28554 | -48.28520 | 22424 ft | 421 kts | 171° |
| 2026-05-05 01:36 | -2.31469 | -48.28144 | 22790 ft | 423 kts | 171° |
| 2026-05-05 01:36 | -2.34390 | -48.27767 | 23141 ft | 425 kts | 171° |
| 2026-05-05 01:37 | -2.37331 | -48.27387 | 23490 ft | 427 kts | 171° |
| 2026-05-05 01:37 | -2.40283 | -48.27006 | 23775 ft | 429 kts | 171° |
| 2026-05-05 01:37 | -2.43253 | -48.26623 | 24052 ft | 431 kts | 171° |
| 2026-05-05 01:37 | -2.46231 | -48.26239 | 24337 ft | 432 kts | 171° |
| 2026-05-05 01:38 | -2.49224 | -48.25853 | 24617 ft | 434 kts | 171° |
| 2026-05-05 01:38 | -2.52219 | -48.25467 | 24890 ft | 435 kts | 171° |
| 2026-05-05 01:38 | -2.55225 | -48.25079 | 25160 ft | 437 kts | 171° |
| 2026-05-05 01:38 | -2.58262 | -48.24687 | 25421 ft | 439 kts | 171° |
| 2026-05-05 01:39 | -2.61298 | -48.24296 | 25668 ft | 441 kts | 171° |
| 2026-05-05 01:39 | -2.64348 | -48.23902 | 25917 ft | 443 kts | 171° |
| 2026-05-05 01:39 | -2.67406 | -48.23508 | 26157 ft | 445 kts | 172° |
| 2026-05-05 01:39 | -2.70455 | -48.23114 | 26409 ft | 446 kts | 172° |
| 2026-05-05 01:40 | -2.73548 | -48.22715 | 26650 ft | 448 kts | 172° |
| 2026-05-05 01:40 | -2.76650 | -48.22315 | 26892 ft | 450 kts | 172° |
| 2026-05-05 01:40 | -2.79763 | -48.21913 | 27139 ft | 451 kts | 172° |
| 2026-05-05 01:40 | -2.82876 | -48.21511 | 27382 ft | 453 kts | 172° |
| 2026-05-05 01:41 | -2.86018 | -48.21106 | 27611 ft | 454 kts | 172° |
| 2026-05-05 01:41 | -2.89175 | -48.20864 | 27762 ft | 459 kts | 182° |
| 2026-05-05 01:41 | -2.92365 | -48.21208 | 27976 ft | 461 kts | 187° |
| 2026-05-05 01:41 | -2.95541 | -48.21690 | 28210 ft | 462 kts | 188° |
| 2026-05-05 01:42 | -2.98715 | -48.22206 | 28425 ft | 464 kts | 188° |
| 2026-05-05 01:42 | -3.01911 | -48.22720 | 28616 ft | 466 kts | 188° |
| 2026-05-05 01:42 | -3.05122 | -48.23218 | 28824 ft | 467 kts | 187° |
| 2026-05-05 01:42 | -3.08345 | -48.23700 | 29034 ft | 469 kts | 187° |
| 2026-05-05 01:43 | -3.11575 | -48.24168 | 29222 ft | 470 kts | 187° |
| 2026-05-05 01:43 | -3.14825 | -48.24630 | 29411 ft | 472 kts | 187° |
| 2026-05-05 01:43 | -3.18079 | -48.25089 | 29597 ft | 473 kts | 187° |
| 2026-05-05 01:43 | -3.21298 | -48.25541 | 29786 ft | 475 kts | 187° |
| 2026-05-05 01:44 | -3.24580 | -48.26003 | 29969 ft | 476 kts | 187° |
| 2026-05-05 01:44 | -3.27868 | -48.26465 | 30204 ft | 475 kts | 187° |
| 2026-05-05 01:44 | -3.31141 | -48.26927 | 30482 ft | 473 kts | 187° |
| 2026-05-05 01:44 | -3.34393 | -48.27386 | 30796 ft | 471 kts | 187° |
| 2026-05-05 01:45 | -3.37633 | -48.27844 | 31105 ft | 468 kts | 187° |
| 2026-05-05 01:45 | -3.40850 | -48.28299 | 31367 ft | 467 kts | 187° |
| 2026-05-05 01:45 | -3.44067 | -48.28753 | 31646 ft | 466 kts | 187° |
| 2026-05-05 01:45 | -3.47270 | -48.29206 | 31973 ft | 463 kts | 187° |
| 2026-05-05 01:46 | -3.50458 | -48.29657 | 32256 ft | 462 kts | 187° |
| 2026-05-05 01:46 | -3.53643 | -48.30107 | 32504 ft | 461 kts | 187° |
| 2026-05-05 01:46 | -3.56815 | -48.30555 | 32749 ft | 461 kts | 187° |
| 2026-05-05 01:46 | -3.59956 | -48.30999 | 33007 ft | 460 kts | 187° |
| 2026-05-05 01:47 | -3.63114 | -48.31445 | 33292 ft | 458 kts | 187° |
| 2026-05-05 01:47 | -3.66271 | -48.31892 | 33569 ft | 457 kts | 187° |
| 2026-05-05 01:47 | -3.69427 | -48.32338 | 33830 ft | 457 kts | 187° |
| 2026-05-05 01:47 | -3.72569 | -48.32782 | 34057 ft | 457 kts | 187° |
| 2026-05-05 01:48 | -3.75735 | -48.33230 | 34169 ft | 459 kts | 187° |
| 2026-05-05 01:48 | -3.78897 | -48.33677 | 34341 ft | 459 kts | 187° |
| 2026-05-05 01:48 | -3.82060 | -48.34124 | 34600 ft | 457 kts | 187° |
| 2026-05-05 01:48 | -3.85212 | -48.34570 | 34871 ft | 455 kts | 188° |
| 2026-05-05 01:49 | -3.88347 | -48.35014 | 35083 ft | 455 kts | 188° |
| 2026-05-05 01:49 | -3.91485 | -48.35458 | 35270 ft | 455 kts | 188° |
| 2026-05-05 01:49 | -3.94616 | -48.35901 | 35467 ft | 454 kts | 188° |
| 2026-05-05 01:49 | -3.97705 | -48.36338 | 35684 ft | 453 kts | 188° |
| 2026-05-05 01:50 | -4.00835 | -48.36780 | 35888 ft | 452 kts | 188° |
| 2026-05-05 01:50 | -4.03955 | -48.37222 | 36062 ft | 452 kts | 188° |
| 2026-05-05 01:50 | -4.07076 | -48.37664 | 36262 ft | 452 kts | 188° |
| 2026-05-05 01:50 | -4.10185 | -48.38103 | 36470 ft | 451 kts | 188° |
| 2026-05-05 01:51 | -4.13278 | -48.38541 | 36667 ft | 450 kts | 188° |
| 2026-05-05 01:51 | -4.16374 | -48.38979 | 36836 ft | 449 kts | 188° |
| 2026-05-05 01:51 | -4.19478 | -48.39419 | 36998 ft | 449 kts | 188° |
| 2026-05-05 01:51 | -4.22588 | -48.39859 | 37008 ft | 452 kts | 188° |
| 2026-05-05 01:52 | -4.28806 | -48.40740 | 37020 ft | 450 kts | 188° |
| 2026-05-05 01:52 | -4.34987 | -48.41615 | 37011 ft | 447 kts | 188° |
| 2026-05-05 01:53 | -4.41101 | -48.42481 | 37021 ft | 445 kts | 188° |
| 2026-05-05 01:53 | -4.47219 | -48.43348 | 37028 ft | 443 kts | 188° |
| 2026-05-05 01:54 | -4.53356 | -48.43894 | 37028 ft | 443 kts | 180° |
| 2026-05-05 01:54 | -4.59535 | -48.43723 | 37019 ft | 446 kts | 178° |
| 2026-05-05 01:55 | -4.65778 | -48.43508 | 37035 ft | 452 kts | 179° |
| 2026-05-05 01:55 | -4.72098 | -48.43379 | 37031 ft | 456 kts | 179° |
| 2026-05-05 01:56 | -4.78472 | -48.43290 | 37029 ft | 460 kts | 179° |
| 2026-05-05 01:56 | -4.84887 | -48.43204 | 37022 ft | 462 kts | 179° |
| 2026-05-05 01:57 | -4.91317 | -48.43115 | 37021 ft | 462 kts | 180° |
| 2026-05-05 01:57 | -4.97711 | -48.43025 | 37006 ft | 462 kts | 180° |
| 2026-05-05 01:58 | -5.04122 | -48.42935 | 37011 ft | 460 kts | 180° |
| 2026-05-05 01:58 | -5.10507 | -48.42847 | 37014 ft | 458 kts | 180° |
| 2026-05-05 01:59 | -5.16863 | -48.42765 | 37019 ft | 455 kts | 180° |
| 2026-05-05 01:59 | -5.23198 | -48.42684 | 36998 ft | 453 kts | 180° |
| 2026-05-05 02:00 | -5.29487 | -48.42603 | 37009 ft | 451 kts | 180° |
| 2026-05-05 02:00 | -5.35757 | -48.42521 | 37008 ft | 449 kts | 180° |
| 2026-05-05 02:01 | -5.41963 | -48.42441 | 37006 ft | 448 kts | 180° |
| 2026-05-05 02:01 | -5.48193 | -48.42360 | 37011 ft | 447 kts | 180° |
| 2026-05-05 02:02 | -5.54423 | -48.42279 | 37010 ft | 447 kts | 180° |
| 2026-05-05 02:02 | -5.60645 | -48.42200 | 37007 ft | 448 kts | 180° |
| 2026-05-05 02:03 | -5.66888 | -48.42121 | 37010 ft | 448 kts | 180° |
| 2026-05-05 02:03 | -5.73136 | -48.42042 | 37020 ft | 449 kts | 180° |
| 2026-05-05 02:04 | -5.79396 | -48.41962 | 37010 ft | 450 kts | 180° |
| 2026-05-05 02:04 | -5.85665 | -48.41882 | 37013 ft | 451 kts | 180° |
| 2026-05-05 02:05 | -5.91949 | -48.41802 | 37016 ft | 451 kts | 180° |
| 2026-05-05 02:05 | -5.97141 | -48.41736 | 37003 ft | 452 kts | 180° |
| 2026-05-05 02:06 | -6.04503 | -48.41643 | 37013 ft | 452 kts | 180° |
| 2026-05-05 02:06 | -6.10760 | -48.41563 | 37017 ft | 452 kts | 180° |
| 2026-05-05 02:07 | -6.15997 | -48.41496 | 37007 ft | 452 kts | 180° |
| 2026-05-05 02:07 | -6.22283 | -48.41416 | 37013 ft | 451 kts | 180° |
| 2026-05-05 02:08 | -6.28570 | -48.41336 | 37017 ft | 451 kts | 180° |
| 2026-05-05 02:08 | -6.34843 | -48.41255 | 37000 ft | 451 kts | 180° |
| 2026-05-05 02:09 | -6.41116 | -48.41169 | 37000 ft | 450 kts | 180° |
| 2026-05-05 02:09 | -6.47366 | -48.41084 | 37009 ft | 449 kts | 180° |
| 2026-05-05 02:10 | -6.53587 | -48.40999 | 37005 ft | 449 kts | 180° |
| 2026-05-05 02:10 | -6.59826 | -48.40914 | 37010 ft | 448 kts | 180° |
| 2026-05-05 02:11 | -6.66059 | -48.40830 | 37006 ft | 447 kts | 180° |
| 2026-05-05 02:11 | -6.72274 | -48.40745 | 37008 ft | 447 kts | 181° |
| 2026-05-05 02:12 | -6.81601 | -48.40619 | 37012 ft | 446 kts | 181° |
| 2026-05-05 02:13 | -6.87818 | -48.40534 | 37008 ft | 446 kts | 181° |
| 2026-05-05 02:13 | -6.94030 | -48.40450 | 37010 ft | 446 kts | 181° |
| 2026-05-05 02:14 | -7.00238 | -48.40365 | 37006 ft | 446 kts | 181° |
| 2026-05-05 02:14 | -7.06441 | -48.40281 | 36997 ft | 445 kts | 181° |
| 2026-05-05 02:15 | -7.12630 | -48.40197 | 37003 ft | 445 kts | 181° |
| 2026-05-05 02:15 | -7.18842 | -48.40113 | 37015 ft | 445 kts | 181° |
| 2026-05-05 02:16 | -7.25045 | -48.40028 | 37006 ft | 446 kts | 181° |
| 2026-05-05 02:16 | -7.31247 | -48.39944 | 37015 ft | 446 kts | 181° |
| 2026-05-05 02:17 | -7.37424 | -48.39860 | 37021 ft | 447 kts | 181° |
| 2026-05-05 02:17 | -7.43644 | -48.39775 | 37016 ft | 447 kts | 181° |
| 2026-05-05 02:18 | -7.49871 | -48.39690 | 37003 ft | 447 kts | 181° |
| 2026-05-05 02:18 | -7.56098 | -48.39605 | 37009 ft | 448 kts | 181° |
| 2026-05-05 02:19 | -7.62333 | -48.39520 | 37020 ft | 448 kts | 181° |
| 2026-05-05 02:19 | -7.68566 | -48.39435 | 37024 ft | 448 kts | 181° |
| 2026-05-05 02:20 | -7.74797 | -48.39350 | 37008 ft | 447 kts | 181° |
| 2026-05-05 02:20 | -7.81027 | -48.39265 | 37012 ft | 447 kts | 181° |
| 2026-05-05 02:21 | -7.87230 | -48.39181 | 37006 ft | 446 kts | 181° |
| 2026-05-05 02:21 | -7.93429 | -48.39096 | 37008 ft | 445 kts | 181° |
| 2026-05-05 02:22 | -7.99582 | -48.39012 | 37019 ft | 444 kts | 181° |
| 2026-05-05 02:22 | -8.05753 | -48.38928 | 37010 ft | 443 kts | 181° |
| 2026-05-05 02:23 | -8.11916 | -48.38844 | 37011 ft | 442 kts | 181° |
| 2026-05-05 02:23 | -8.18068 | -48.38763 | 37024 ft | 442 kts | 181° |
| 2026-05-05 02:24 | -8.24194 | -48.38693 | 37014 ft | 441 kts | 181° |
| 2026-05-05 02:24 | -8.30326 | -48.38623 | 37018 ft | 441 kts | 181° |
| 2026-05-05 02:25 | -8.36469 | -48.38552 | 37011 ft | 441 kts | 181° |
| 2026-05-05 02:25 | -8.42603 | -48.38476 | 37023 ft | 440 kts | 180° |
| 2026-05-05 02:26 | -8.48732 | -48.38367 | 37019 ft | 440 kts | 180° |
| 2026-05-05 02:26 | -8.54856 | -48.38254 | 37023 ft | 440 kts | 180° |
| 2026-05-05 02:27 | -8.60982 | -48.38144 | 37022 ft | 440 kts | 180° |
| 2026-05-05 02:27 | -8.67116 | -48.38045 | 37022 ft | 440 kts | 180° |
| 2026-05-05 02:28 | -8.73202 | -48.37967 | 37014 ft | 440 kts | 180° |
| 2026-05-05 02:28 | -8.79335 | -48.37890 | 37016 ft | 440 kts | 180° |
| 2026-05-05 02:29 | -8.85466 | -48.37811 | 37024 ft | 440 kts | 180° |
| 2026-05-05 02:29 | -8.91598 | -48.37731 | 37012 ft | 440 kts | 180° |
| 2026-05-05 02:30 | -8.97716 | -48.37650 | 37020 ft | 440 kts | 180° |
| 2026-05-05 02:30 | -9.03856 | -48.37569 | 37024 ft | 440 kts | 180° |
| 2026-05-05 02:31 | -9.09983 | -48.37488 | 37026 ft | 440 kts | 180° |
| 2026-05-05 02:31 | -9.16110 | -48.37407 | 37023 ft | 440 kts | 180° |
| 2026-05-05 02:32 | -9.22231 | -48.37327 | 37026 ft | 440 kts | 180° |
| 2026-05-05 02:32 | -9.28318 | -48.37246 | 37022 ft | 440 kts | 180° |
| 2026-05-05 02:33 | -9.34440 | -48.37166 | 37013 ft | 440 kts | 181° |
| 2026-05-05 02:33 | -9.40563 | -48.37085 | 37017 ft | 439 kts | 181° |
| 2026-05-05 02:34 | -9.46682 | -48.37004 | 37028 ft | 439 kts | 181° |
| 2026-05-05 02:34 | -9.52794 | -48.36923 | 37025 ft | 439 kts | 181° |
| 2026-05-05 02:35 | -9.58911 | -48.36842 | 37023 ft | 439 kts | 181° |
| 2026-05-05 02:35 | -9.64984 | -48.36764 | 37033 ft | 439 kts | 181° |
| 2026-05-05 02:36 | -9.71090 | -48.36691 | 37024 ft | 439 kts | 181° |
| 2026-05-05 02:36 | -9.77196 | -48.36617 | 37033 ft | 438 kts | 181° |
| 2026-05-05 02:37 | -9.83289 | -48.36538 | 37024 ft | 438 kts | 181° |
| 2026-05-05 02:37 | -9.89387 | -48.36451 | 37036 ft | 438 kts | 181° |
| 2026-05-05 02:38 | -9.95482 | -48.36365 | 37028 ft | 437 kts | 181° |
| 2026-05-05 02:38 | -10.01578 | -48.36280 | 37040 ft | 437 kts | 181° |
| 2026-05-05 02:39 | -10.07657 | -48.36195 | 37035 ft | 437 kts | 181° |
| 2026-05-05 02:39 | -10.13696 | -48.36111 | 37044 ft | 437 kts | 181° |
| 2026-05-05 02:40 | -10.19773 | -48.36026 | 37051 ft | 437 kts | 181° |
| 2026-05-05 02:40 | -10.25857 | -48.35941 | 37052 ft | 437 kts | 181° |
| 2026-05-05 02:41 | -10.31933 | -48.35776 | 37047 ft | 437 kts | 178° |
| 2026-05-05 02:41 | -10.38019 | -48.35359 | 37054 ft | 438 kts | 178° |
| 2026-05-05 02:42 | -10.44105 | -48.35000 | 37045 ft | 438 kts | 179° |
| 2026-05-05 02:42 | -10.50187 | -48.34663 | 37038 ft | 438 kts | 179° |
| 2026-05-05 02:43 | -10.56221 | -48.34329 | 37035 ft | 438 kts | 179° |
| 2026-05-05 02:43 | -10.62317 | -48.33989 | 37038 ft | 438 kts | 179° |
| 2026-05-05 02:44 | -10.68415 | -48.33647 | 37032 ft | 439 kts | 179° |
| 2026-05-05 02:44 | -10.74519 | -48.33305 | 37033 ft | 439 kts | 179° |
| 2026-05-05 02:45 | -10.80622 | -48.32963 | 37035 ft | 439 kts | 179° |
| 2026-05-05 02:45 | -10.86732 | -48.32620 | 37032 ft | 439 kts | 179° |
| 2026-05-05 02:46 | -10.92838 | -48.32278 | 37037 ft | 439 kts | 179° |
| 2026-05-05 02:46 | -10.98942 | -48.31921 | 37033 ft | 439 kts | 179° |
| 2026-05-05 02:47 | -11.05008 | -48.31512 | 37037 ft | 439 kts | 179° |
| 2026-05-05 02:47 | -11.11100 | -48.31099 | 37029 ft | 439 kts | 179° |
| 2026-05-05 02:48 | -11.17190 | -48.30692 | 37032 ft | 438 kts | 179° |
| 2026-05-05 02:48 | -11.23279 | -48.30287 | 37030 ft | 437 kts | 179° |
| 2026-05-05 02:49 | -11.29341 | -48.29884 | 37037 ft | 436 kts | 179° |
| 2026-05-05 02:49 | -11.35390 | -48.29660 | 37031 ft | 434 kts | 181° |
| 2026-05-05 02:50 | -11.41421 | -48.29537 | 37030 ft | 433 kts | 181° |
| 2026-05-05 02:50 | -11.47415 | -48.29393 | 37025 ft | 433 kts | 181° |
| 2026-05-05 02:51 | -11.53435 | -48.29229 | 37027 ft | 432 kts | 181° |
| 2026-05-05 02:51 | -11.59440 | -48.29062 | 37033 ft | 432 kts | 181° |
| 2026-05-05 02:52 | -11.65450 | -48.28895 | 37029 ft | 431 kts | 181° |
| 2026-05-05 02:52 | -11.71455 | -48.28731 | 37037 ft | 431 kts | 181° |
| 2026-05-05 02:53 | -11.76447 | -48.28598 | 37032 ft | 431 kts | 181° |
| 2026-05-05 02:53 | -11.82455 | -48.28439 | 37034 ft | 432 kts | 181° |
| 2026-05-05 02:54 | -11.88463 | -48.28280 | 37037 ft | 432 kts | 181° |
| 2026-05-05 02:54 | -11.94488 | -48.28120 | 37032 ft | 433 kts | 181° |
| 2026-05-05 02:55 | -12.00511 | -48.27960 | 37033 ft | 433 kts | 181° |
| 2026-05-05 02:55 | -12.06532 | -48.27799 | 37036 ft | 433 kts | 181° |
| 2026-05-05 02:56 | -12.12550 | -48.27639 | 37042 ft | 433 kts | 181° |
| 2026-05-05 02:56 | -12.18564 | -48.27479 | 37035 ft | 432 kts | 181° |
| 2026-05-05 02:57 | -12.24534 | -48.27319 | 37036 ft | 431 kts | 181° |
| 2026-05-05 02:57 | -12.30520 | -48.27160 | 37034 ft | 429 kts | 181° |
| 2026-05-05 02:58 | -12.36484 | -48.27000 | 37050 ft | 428 kts | 181° |
| 2026-05-05 02:58 | -12.42431 | -48.26842 | 37039 ft | 427 kts | 181° |
| 2026-05-05 02:59 | -12.48359 | -48.26721 | 37043 ft | 425 kts | 182° |
| 2026-05-05 02:59 | -12.54261 | -48.26661 | 37046 ft | 423 kts | 182° |
| 2026-05-05 03:00 | -12.60150 | -48.26604 | 37051 ft | 423 kts | 182° |
| 2026-05-05 03:00 | -12.66028 | -48.26540 | 37063 ft | 422 kts | 182° |
| 2026-05-05 03:01 | -12.71902 | -48.26473 | 37060 ft | 422 kts | 182° |
| 2026-05-05 03:01 | -12.77770 | -48.26404 | 37054 ft | 421 kts | 182° |
| 2026-05-05 03:02 | -12.83628 | -48.26335 | 37062 ft | 421 kts | 182° |
| 2026-05-05 03:02 | -12.89486 | -48.26266 | 37068 ft | 421 kts | 182° |
| 2026-05-05 03:03 | -12.95304 | -48.26198 | 37068 ft | 421 kts | 182° |
| 2026-05-05 03:03 | -13.01155 | -48.26129 | 37067 ft | 421 kts | 182° |
| 2026-05-05 03:04 | -13.07010 | -48.26060 | 37070 ft | 420 kts | 182° |
| 2026-05-05 03:04 | -13.12865 | -48.25991 | 37068 ft | 420 kts | 182° |
| 2026-05-05 03:05 | -13.18708 | -48.25923 | 37080 ft | 420 kts | 183° |
| 2026-05-05 03:05 | -13.24559 | -48.25854 | 37070 ft | 420 kts | 183° |
| 2026-05-05 03:06 | -13.30398 | -48.25785 | 37072 ft | 420 kts | 183° |
| 2026-05-05 03:06 | -13.36236 | -48.25716 | 37074 ft | 419 kts | 183° |
| 2026-05-05 03:07 | -13.42080 | -48.25647 | 37073 ft | 419 kts | 183° |
| 2026-05-05 03:07 | -13.47872 | -48.25578 | 37080 ft | 419 kts | 183° |
| 2026-05-05 03:08 | -13.53702 | -48.25509 | 37071 ft | 418 kts | 183° |
| 2026-05-05 03:08 | -13.59514 | -48.25441 | 37068 ft | 418 kts | 183° |
| 2026-05-05 03:09 | -13.65314 | -48.25372 | 37086 ft | 417 kts | 183° |
| 2026-05-05 03:09 | -13.71123 | -48.25304 | 37084 ft | 417 kts | 184° |
| 2026-05-05 03:10 | -13.76925 | -48.25235 | 37085 ft | 418 kts | 184° |
| 2026-05-05 03:10 | -13.82764 | -48.25167 | 36680 ft | 419 kts | 183° |
| 2026-05-05 03:10 | -13.85661 | -48.25132 | 36289 ft | 414 kts | 184° |
| 2026-05-05 03:11 | -13.88532 | -48.25096 | 35915 ft | 410 kts | 183° |
| 2026-05-05 03:11 | -13.91371 | -48.25061 | 35524 ft | 407 kts | 184° |
| 2026-05-05 03:11 | -13.94195 | -48.25027 | 35106 ft | 404 kts | 184° |
| 2026-05-05 03:11 | -13.96971 | -48.24994 | 34731 ft | 401 kts | 184° |
| 2026-05-05 03:12 | -13.99753 | -48.24961 | 34340 ft | 398 kts | 184° |
| 2026-05-05 03:12 | -14.02512 | -48.24928 | 33921 ft | 395 kts | 184° |
| 2026-05-05 03:12 | -14.05253 | -48.24896 | 33471 ft | 392 kts | 184° |
| 2026-05-05 03:12 | -14.07973 | -48.24864 | 33073 ft | 389 kts | 183° |
| 2026-05-05 03:13 | -14.10668 | -48.24832 | 32668 ft | 386 kts | 183° |
| 2026-05-05 03:13 | -14.13343 | -48.24800 | 32283 ft | 383 kts | 183° |
| 2026-05-05 03:13 | -14.16001 | -48.24769 | 31900 ft | 381 kts | 183° |
| 2026-05-05 03:13 | -14.18640 | -48.24737 | 31525 ft | 378 kts | 183° |
| 2026-05-05 03:14 | -14.21272 | -48.24707 | 31148 ft | 376 kts | 183° |
| 2026-05-05 03:14 | -14.23884 | -48.24676 | 30754 ft | 375 kts | 183° |
| 2026-05-05 03:14 | -14.26491 | -48.24645 | 30388 ft | 374 kts | 183° |
| 2026-05-05 03:14 | -14.29087 | -48.24615 | 29973 ft | 373 kts | 182° |
| 2026-05-05 03:15 | -14.31672 | -48.24584 | 29564 ft | 371 kts | 182° |
| 2026-05-05 03:15 | -14.34247 | -48.24554 | 29156 ft | 368 kts | 182° |
| 2026-05-05 03:15 | -14.36798 | -48.24523 | 28765 ft | 365 kts | 182° |
| 2026-05-05 03:15 | -14.39330 | -48.24493 | 28394 ft | 363 kts | 182° |
| 2026-05-05 03:16 | -14.41850 | -48.24463 | 28013 ft | 361 kts | 182° |
| 2026-05-05 03:16 | -14.44359 | -48.24433 | 27636 ft | 359 kts | 181° |
| 2026-05-05 03:16 | -14.46849 | -48.24404 | 27263 ft | 357 kts | 181° |
| 2026-05-05 03:16 | -14.49302 | -48.24375 | 26898 ft | 356 kts | 181° |
| 2026-05-05 03:17 | -14.51777 | -48.24346 | 26529 ft | 355 kts | 181° |
| 2026-05-05 03:17 | -14.54244 | -48.24317 | 26153 ft | 354 kts | 181° |
| 2026-05-05 03:17 | -14.56707 | -48.24287 | 25772 ft | 354 kts | 181° |
| 2026-05-05 03:17 | -14.59165 | -48.24258 | 25401 ft | 353 kts | 180° |
| 2026-05-05 03:18 | -14.61619 | -48.24229 | 25028 ft | 353 kts | 180° |
| 2026-05-05 03:18 | -14.64078 | -48.24200 | 24660 ft | 353 kts | 180° |
| 2026-05-05 03:18 | -14.66534 | -48.24171 | 24283 ft | 353 kts | 180° |
| 2026-05-05 03:18 | -14.68989 | -48.24142 | 23913 ft | 353 kts | 180° |
| 2026-05-05 03:19 | -14.73923 | -48.24083 | 23111 ft | 353 kts | 179° |
| 2026-05-05 03:19 | -14.76366 | -48.24053 | 22739 ft | 351 kts | 179° |
| 2026-05-05 03:19 | -14.78811 | -48.24024 | 22370 ft | 349 kts | 179° |
| 2026-05-05 03:20 | -14.81231 | -48.23995 | 21999 ft | 348 kts | 180° |
| 2026-05-05 03:20 | -14.83641 | -48.23966 | 21650 ft | 346 kts | 180° |
| 2026-05-05 03:20 | -14.86053 | -48.23937 | 21293 ft | 345 kts | 179° |
| 2026-05-05 03:20 | -14.88449 | -48.23909 | 20934 ft | 343 kts | 179° |
| 2026-05-05 03:21 | -14.90832 | -48.23880 | 20568 ft | 343 kts | 179° |
| 2026-05-05 03:21 | -14.93222 | -48.23852 | 20203 ft | 342 kts | 179° |
| 2026-05-05 03:21 | -14.95598 | -48.23823 | 19840 ft | 341 kts | 179° |
| 2026-05-05 03:21 | -14.97974 | -48.23795 | 19482 ft | 341 kts | 179° |
| 2026-05-05 03:22 | -15.00311 | -48.23767 | 19122 ft | 340 kts | 179° |
| 2026-05-05 03:22 | -15.02710 | -48.23738 | 18757 ft | 340 kts | 179° |
| 2026-05-05 03:22 | -15.05074 | -48.23710 | 18387 ft | 340 kts | 179° |
| 2026-05-05 03:22 | -15.07407 | -48.23682 | 17994 ft | 339 kts | 179° |
| 2026-05-05 03:23 | -15.09756 | -48.23654 | 17632 ft | 337 kts | 179° |
| 2026-05-05 03:23 | -15.12101 | -48.23626 | 17268 ft | 336 kts | 179° |
| 2026-05-05 03:23 | -15.14439 | -48.23598 | 16909 ft | 334 kts | 179° |
| 2026-05-05 03:23 | -15.16760 | -48.23570 | 16545 ft | 333 kts | 179° |
| 2026-05-05 03:24 | -15.19071 | -48.23542 | 16190 ft | 332 kts | 179° |
| 2026-05-05 03:24 | -15.21378 | -48.23515 | 15820 ft | 331 kts | 179° |
| 2026-05-05 03:24 | -15.23686 | -48.23487 | 15456 ft | 331 kts | 179° |
| 2026-05-05 03:24 | -15.25990 | -48.23459 | 15109 ft | 330 kts | 179° |
| 2026-05-05 03:25 | -15.28285 | -48.23432 | 14739 ft | 330 kts | 179° |
| 2026-05-05 03:25 | -15.30585 | -48.23404 | 14373 ft | 327 kts | 179° |
| 2026-05-05 03:25 | -15.32809 | -48.23377 | 14027 ft | 321 kts | 179° |
| 2026-05-05 03:25 | -15.35045 | -48.23351 | 13659 ft | 321 kts | 179° |
| 2026-05-05 03:26 | -15.37270 | -48.23324 | 13309 ft | 319 kts | 179° |
| 2026-05-05 03:26 | -15.39490 | -48.23297 | 12962 ft | 318 kts | 179° |
| 2026-05-05 03:26 | -15.41698 | -48.23271 | 12613 ft | 316 kts | 179° |
| 2026-05-05 03:26 | -15.43897 | -48.23244 | 12270 ft | 315 kts | 179° |
| 2026-05-05 03:27 | -15.46089 | -48.23218 | 11943 ft | 314 kts | 179° |
| 2026-05-05 03:27 | -15.48264 | -48.23192 | 11595 ft | 313 kts | 179° |
| 2026-05-05 03:27 | -15.50437 | -48.23166 | 11261 ft | 311 kts | 179° |
| 2026-05-05 03:27 | -15.52597 | -48.23140 | 10918 ft | 310 kts | 179° |
| 2026-05-05 03:28 | -15.54722 | -48.23114 | 10591 ft | 309 kts | 179° |
| 2026-05-05 03:28 | -15.56866 | -48.23088 | 10336 ft | 305 kts | 179° |
| 2026-05-05 03:28 | -15.58964 | -48.23063 | 10165 ft | 298 kts | 179° |
| 2026-05-05 03:28 | -15.61008 | -48.23039 | 10097 ft | 288 kts | 179° |
| 2026-05-05 03:29 | -15.63027 | -48.23015 | 9585 ft | 294 kts | 178° |
| 2026-05-05 03:29 | -15.65069 | -48.22990 | 9224 ft | 294 kts | 178° |
| 2026-05-05 03:29 | -15.67110 | -48.22966 | 8915 ft | 292 kts | 178° |
| 2026-05-05 03:29 | -15.69135 | -48.22941 | 8600 ft | 290 kts | 178° |
| 2026-05-05 03:30 | -15.71151 | -48.22917 | 8306 ft | 289 kts | 178° |
| 2026-05-05 03:30 | -15.73157 | -48.22893 | 8018 ft | 287 kts | 178° |
| 2026-05-05 03:30 | -15.75154 | -48.22869 | 7727 ft | 286 kts | 178° |
| 2026-05-05 03:30 | -15.77135 | -48.22845 | 7436 ft | 285 kts | 178° |
| 2026-05-05 03:31 | -15.79132 | -48.22812 | 7064 ft | 286 kts | 175° |
| 2026-05-05 03:31 | -15.81064 | -48.22610 | 6840 ft | 273 kts | 170° |
| 2026-05-05 03:31 | -15.82881 | -48.22346 | 6679 ft | 260 kts | 168° |
| 2026-05-05 03:31 | -15.84498 | -48.21711 | 6564 ft | 239 kts | 140° |
| 2026-05-05 03:32 | -15.85611 | -48.20555 | 6524 ft | 216 kts | 123° |
| 2026-05-05 03:32 | -15.86273 | -48.19249 | 6531 ft | 194 kts | 114° |
| 2026-05-05 03:32 | -15.86816 | -48.18049 | 6512 ft | 174 kts | 114° |
| 2026-05-05 03:32 | -15.87340 | -48.16889 | 6551 ft | 176 kts | 114° |
| 2026-05-05 03:33 | -15.87742 | -48.15752 | 6517 ft | 162 kts | 93° |
| 2026-05-05 03:33 | -15.87707 | -48.14615 | 6538 ft | 156 kts | 89° |
| 2026-05-05 03:33 | -15.87671 | -48.13515 | 6552 ft | 153 kts | 88° |
| 2026-05-05 03:33 | -15.87617 | -48.12404 | 6556 ft | 155 kts | 88° |
| 2026-05-05 03:34 | -15.87552 | -48.11283 | 6539 ft | 157 kts | 87° |
| 2026-05-05 03:34 | -15.87482 | -48.10161 | 6455 ft | 152 kts | 86° |
| 2026-05-05 03:34 | -15.87412 | -48.09080 | 6398 ft | 146 kts | 86° |
| 2026-05-05 03:34 | -15.87343 | -48.08002 | 6268 ft | 152 kts | 87° |
| 2026-05-05 03:35 | -15.87272 | -48.06916 | 6094 ft | 151 kts | 86° |
| 2026-05-05 03:35 | -15.87203 | -48.05849 | 5912 ft | 146 kts | 86° |
| 2026-05-05 03:35 | -15.87135 | -48.04809 | 5737 ft | 143 kts | 86° |
| 2026-05-05 03:35 | -15.87068 | -48.03774 | 5555 ft | 145 kts | 86° |
| 2026-05-05 03:36 | -15.87001 | -48.02735 | 5378 ft | 143 kts | 87° |
| 2026-05-05 03:36 | -15.86934 | -48.01710 | 5211 ft | 140 kts | 86° |
| 2026-05-05 03:36 | -15.86869 | -48.00706 | 5017 ft | 139 kts | 87° |
| 2026-05-05 03:36 | -15.86805 | -47.99700 | 4833 ft | 140 kts | 86° |
| 2026-05-05 03:37 | -15.86739 | -47.98681 | 4646 ft | 144 kts | 86° |
| 2026-05-05 03:37 | -15.86672 | -47.97640 | 4467 ft | 144 kts | 86° |
| 2026-05-05 03:37 | -15.86604 | -47.96596 | 4268 ft | 146 kts | 86° |
| 2026-05-05 03:37 | -15.86535 | -47.95516 | 4069 ft | 153 kts | 86° |
| 2026-05-05 03:38 | -15.86463 | -47.94407 | 3847 ft | 154 kts | 86° |
| 2026-05-05 03:38 | -15.86392 | -47.93302 | 3619 ft | 153 kts | 87° |
| 2026-05-05 03:38 | -15.86325 | -47.92208 | 3472 ft | 146 kts | 86° |
| 2026-05-05 03:38 | -15.86270 | -47.91365 | 3471 ft | 86 kts | 86° |
| 2026-05-05 03:39 | -15.86240 | -47.90912 | 3475 ft | 30 kts | 86° |
| 2026-05-05 03:39 | -15.86294 | -47.90810 | 3473 ft | 10 kts | 131° |
| 2026-05-05 03:39 | -15.86341 | -47.90753 | 3473 ft | 10 kts | 131° |
| 2026-05-05 03:39 | -15.86370 | -47.90719 | 3472 ft | 9 kts | 136° |
| 2026-05-05 03:40 | -15.86420 | -47.90731 | 3471 ft | 9 kts | 252° |
| 2026-05-05 03:40 | -15.86425 | -47.90787 | 3471 ft | 7 kts | 266° |
| 2026-05-05 03:40 | -15.86428 | -47.90838 | 3471 ft | 7 kts | 266° |
| 2026-05-05 03:40 | -15.86430 | -47.90888 | 3470 ft | 7 kts | 266° |
| 2026-05-05 03:41 | -15.86433 | -47.90936 | 3470 ft | 7 kts | 266° |
| 2026-05-05 03:41 | -15.86436 | -47.90984 | 3470 ft | 7 kts | 266° |
| 2026-05-05 03:41 | -15.86439 | -47.91031 | 3470 ft | 6 kts | 266° |
| 2026-05-05 03:41 | -15.86443 | -47.91077 | 3470 ft | 6 kts | 266° |
| 2026-05-05 03:42 | -15.86447 | -47.91122 | 3470 ft | 6 kts | 265° |
| 2026-05-05 03:42 | -15.86450 | -47.91166 | 3470 ft | 6 kts | 265° |
| 2026-05-05 03:42 | -15.86453 | -47.91210 | 3470 ft | 6 kts | 265° |
| 2026-05-05 03:42 | -15.86456 | -47.91253 | 3470 ft | 6 kts | 268° |
| 2026-05-05 03:43 | -15.86458 | -47.91295 | 3470 ft | 6 kts | 266° |
| 2026-05-05 03:43 | -15.86460 | -47.91336 | 3470 ft | 6 kts | 266° |
| 2026-05-05 03:43 | -15.86462 | -47.91377 | 3470 ft | 6 kts | 266° |
| 2026-05-05 03:43 | -15.86465 | -47.91418 | 3470 ft | 6 kts | 266° |
| 2026-05-05 03:44 | -15.86467 | -47.91457 | 3470 ft | 5 kts | 266° |
| 2026-05-05 03:44 | -15.86470 | -47.91496 | 3469 ft | 5 kts | 266° |
| 2026-05-05 03:44 | -15.86472 | -47.91534 | 3469 ft | 5 kts | 266° |
| 2026-05-05 03:44 | -15.86474 | -47.91572 | 3469 ft | 5 kts | 266° |
| 2026-05-05 03:45 | -15.86478 | -47.91609 | 3469 ft | 5 kts | 263° |
| 2026-05-05 03:45 | -15.86481 | -47.91646 | 3469 ft | 5 kts | 268° |
| 2026-05-05 03:45 | -15.86482 | -47.91678 | 3469 ft | 4 kts | 267° |
| 2026-05-05 03:45 | -15.86484 | -47.91709 | 3470 ft | 4 kts | 266° |
| 2026-05-05 03:46 | -15.86486 | -47.91739 | 3470 ft | 4 kts | 266° |
| 2026-05-05 03:46 | -15.86488 | -47.91769 | 3470 ft | 4 kts | 266° |
| 2026-05-05 03:46 | -15.86491 | -47.91797 | 3470 ft | 4 kts | 246° |
| 2026-05-05 03:46 | -15.86514 | -47.91815 | 3470 ft | 4 kts | 201° |
| 2026-05-05 03:47 | -15.86542 | -47.91813 | 3469 ft | 4 kts | 176° |
| 2026-05-05 03:47 | -15.86571 | -47.91811 | 3468 ft | 4 kts | 176° |
| 2026-05-05 03:47 | -15.86598 | -47.91819 | 3469 ft | 4 kts | 213° |
| 2026-05-05 03:47 | -15.86616 | -47.91843 | 3469 ft | 4 kts | 243° |
| 2026-05-05 03:48 | -15.86618 | -47.91874 | 3469 ft | 4 kts | 268° |
| 2026-05-05 03:48 | -15.86620 | -47.91906 | 3469 ft | 4 kts | 266° |
| 2026-05-05 03:48 | -15.86625 | -47.91936 | 3467 ft | 4 kts | 239° |
| 2026-05-05 03:48 | -15.86648 | -47.91938 | 3469 ft | 4 kts | 167° |
| 2026-05-05 03:49 | -15.86674 | -47.91936 | 3469 ft | 4 kts | 176° |
| 2026-05-05 03:49 | -15.86698 | -47.91934 | 3469 ft | 4 kts | 176° |
| 2026-05-05 03:49 | -15.86710 | -47.91933 | 3469 ft | 0 kts | 176° |